Time;durP1;ratioP1;P1;durP2;ratioP2;P2;SDS_P1;SDS_P2;PMS_P1;PMS_P2;Temp;Humidity;BMP_temperature;BMP_pressure;BME280_temperature;BME280_humidity;BME280_pressure;Samples;Min_cycle;Max_cycle;Signal;HPM_P1;HPM_P2
2022/03/05 00:00:20;;;;;;;28.25;15.93;;;21.10;54.60;;;;;;4995045;28;20059;-71
2022/03/05 00:02:46;;;;;;;26.35;15.20;;;21.00;54.50;;;;;;5004236;28;20049;-71
2022/03/05 00:05:16;;;;;;;24.48;15.85;;;21.00;54.60;;;;;;5020842;28;20046;-72
2022/03/05 00:07:42;;;;;;;24.33;16.65;;;21.10;54.40;;;;;;5019868;28;20037;-71
2022/03/05 00:10:09;;;;;;;26.40;16.73;;;21.30;54.50;;;;;;5004892;28;20069;-71
2022/03/05 00:12:35;;;;;;;24.77;16.67;;;21.10;54.40;;;;;;5001077;28;20063;-72
2022/03/05 00:15:01;;;;;;;25.50;15.88;;;21.20;54.30;;;;;;5000880;28;20066;-71
2022/03/05 00:17:27;;;;;;;26.98;15.98;;;21.20;54.30;;;;;;5000663;28;20043;-72
2022/03/05 00:19:54;;;;;;;26.17;14.50;;;21.20;54.20;;;;;;5001021;28;20066;-72
2022/03/05 00:22:21;;;;;;;30.83;17.20;;;21.30;54.40;;;;;;5001840;28;20031;-71
2022/03/05 00:24:47;;;;;;;28.90;16.70;;;21.10;54.30;;;;;;5009754;28;20131;-71
2022/03/05 00:27:14;;;;;;;27.45;16.83;;;21.10;54.30;;;;;;5000948;28;20035;-71
2022/03/05 00:29:40;;;;;;;24.25;15.85;;;21.10;54.30;;;;;;5000207;28;20042;-71
2022/03/05 00:32:07;;;;;;;26.40;16.85;;;21.10;54.40;;;;;;5011357;28;20039;-71
2022/03/05 00:34:33;;;;;;;23.63;16.08;;;21.10;54.50;;;;;;5019386;28;20034;-71
2022/03/05 00:36:59;;;;;;;29.23;15.75;;;21.00;54.40;;;;;;5019904;28;20038;-71
2022/03/05 00:39:25;;;;;;;26.88;17.08;;;20.90;54.30;;;;;;5012314;28;20066;-71
2022/03/05 00:41:52;;;;;;;26.17;16.27;;;21.00;54.30;;;;;;5000691;28;20051;-71
2022/03/05 00:44:18;;;;;;;22.40;15.85;;;20.90;54.40;;;;;;5000375;28;20045;-71
2022/03/05 00:46:44;;;;;;;25.13;15.65;;;20.90;54.40;;;;;;5008113;28;20066;-71
2022/03/05 00:49:10;;;;;;;28.17;16.27;;;20.90;54.40;;;;;;5020069;28;20042;-71
2022/03/05 00:51:36;;;;;;;24.90;15.93;;;20.90;54.50;;;;;;5019871;28;20070;-71
2022/03/05 00:54:03;;;;;;;26.05;17.30;;;21.00;54.40;;;;;;5008634;28;20074;-71
2022/03/05 00:56:29;;;;;;;28.55;17.02;;;20.90;54.20;;;;;;5000368;28;20077;-71
2022/03/05 00:58:55;;;;;;;25.30;17.13;;;21.00;54.20;;;;;;5000082;28;20038;-71
2022/03/05 01:01:23;;;;;;;22.38;13.77;;;20.90;54.20;;;;;;4999616;28;20050;-71
2022/03/05 01:03:49;;;;;;;24.38;16.88;;;20.90;54.20;;;;;;5000019;28;20066;-71
2022/03/05 01:06:15;;;;;;;28.17;16.98;;;21.00;54.10;;;;;;5003791;28;20035;-72
2022/03/05 01:08:41;;;;;;;28.30;16.73;;;20.90;53.80;;;;;;5018462;28;20053;-71
2022/03/05 01:11:08;;;;;;;29.88;17.10;;;21.00;54.00;;;;;;4999780;28;20038;-71
2022/03/05 01:13:35;;;;;;;28.52;17.40;;;21.00;54.40;;;;;;4999165;28;20039;-71
2022/03/05 01:16:01;;;;;;;27.77;17.75;;;20.90;54.50;;;;;;4999316;28;20039;-71
2022/03/05 01:18:27;;;;;;;23.92;16.17;;;20.90;54.60;;;;;;5000030;28;20066;-72
2022/03/05 01:20:54;;;;;;;25.52;16.85;;;20.80;54.70;;;;;;4999563;28;20066;-72
2022/03/05 01:23:19;;;;;;;27.70;16.73;;;20.90;55.00;;;;;;4988617;28;20046;-72
2022/03/05 01:25:46;;;;;;;30.27;19.55;;;20.70;55.00;;;;;;5000551;28;20050;-72
2022/03/05 01:28:12;;;;;;;26.50;16.50;;;20.80;55.10;;;;;;4999688;28;20081;-71
2022/03/05 01:30:38;;;;;;;31.15;18.15;;;20.80;55.30;;;;;;4998988;28;20038;-71
2022/03/05 01:33:05;;;;;;;28.83;18.25;;;20.70;55.60;;;;;;4999439;28;20046;-71
2022/03/05 01:35:31;;;;;;;30.70;17.83;;;20.70;55.80;;;;;;5007795;28;20070;-72
2022/03/05 01:37:57;;;;;;;32.50;17.85;;;20.60;55.70;;;;;;5001858;28;20043;-71
2022/03/05 01:40:24;;;;;;;31.38;19.40;;;20.60;55.80;;;;;;4999090;28;20038;-71
2022/03/05 01:42:50;;;;;;;33.22;18.20;;;20.70;55.70;;;;;;4999437;28;20047;-71
2022/03/05 01:45:17;;;;;;;33.53;19.33;;;20.70;55.60;;;;;;4999256;28;20035;-72
2022/03/05 01:47:45;;;;;;;33.42;20.05;;;20.70;55.50;;;;;;4998716;28;20039;-71
2022/03/05 01:50:12;;;;;;;31.08;18.98;;;20.70;55.50;;;;;;4999156;28;20027;-71
2022/03/05 01:52:38;;;;;;;26.15;16.65;;;20.70;55.30;;;;;;4999437;28;20034;-71
2022/03/05 01:55:05;;;;;;;32.00;20.52;;;20.70;55.40;;;;;;4999827;28;20103;-71
2022/03/05 01:57:32;;;;;;;31.48;19.35;;;20.90;55.30;;;;;;4999338;28;20070;-71
2022/03/05 01:59:59;;;;;;;36.75;20.77;;;20.90;55.10;;;;;;4998219;28;20050;-71
2022/03/05 02:02:25;;;;;;;33.65;18.75;;;20.90;55.10;;;;;;4998599;28;20047;-71
2022/03/05 02:04:51;;;;;;;33.83;19.27;;;20.70;55.00;;;;;;4998895;28;20054;-71
2022/03/05 02:07:17;;;;;;;37.25;20.00;;;20.80;55.30;;;;;;4999014;28;20066;-71
2022/03/05 02:09:43;;;;;;;32.88;19.83;;;20.80;55.10;;;;;;5002151;28;20043;-71
2022/03/05 02:12:10;;;;;;;35.70;20.45;;;20.90;55.10;;;;;;4998728;28;20066;-71
2022/03/05 02:14:36;;;;;;;36.25;21.73;;;20.90;55.40;;;;;;4998820;28;20111;-71
2022/03/05 02:17:03;;;;;;;35.53;20.80;;;20.60;55.50;;;;;;4998204;28;20050;-71
2022/03/05 02:19:28;;;;;;;32.10;20.35;;;20.80;55.60;;;;;;4981989;28;20050;-71
2022/03/05 02:21:55;;;;;;;32.90;19.52;;;20.70;55.70;;;;;;4998226;28;20051;-72
2022/03/05 02:24:34;;;;;;;30.98;19.58;;;20.70;55.70;;;;;;5002105;28;20065;-72
2022/03/05 02:27:02;;;;;;;32.53;18.90;;;20.60;55.80;;;;;;5011959;28;20050;-71
2022/03/05 02:29:30;;;;;;;33.65;19.73;;;20.80;55.70;;;;;;5017784;28;20034;-72
2022/03/05 02:31:56;;;;;;;35.20;21.05;;;20.80;55.60;;;;;;5002845;28;20062;-71
2022/03/05 02:34:23;;;;;;;32.28;20.27;;;20.80;55.50;;;;;;4998417;28;20105;-71
2022/03/05 02:36:49;;;;;;;33.50;20.33;;;20.80;55.30;;;;;;4997853;28;20065;-71
2022/03/05 02:39:15;;;;;;;35.25;20.13;;;20.80;55.30;;;;;;5001777;28;20070;-71
2022/03/05 02:41:43;;;;;;;31.80;19.02;;;20.90;55.40;;;;;;4997903;28;20123;-72
2022/03/05 02:44:10;;;;;;;37.60;21.10;;;20.80;55.40;;;;;;4997952;28;20114;-71
2022/03/05 02:46:36;;;;;;;34.90;20.20;;;20.80;55.30;;;;;;4997511;28;20057;-71
2022/03/05 02:49:06;;;;;;;34.60;20.27;;;20.90;55.50;;;;;;4998199;28;20138;-71
2022/03/05 02:51:32;;;;;;;36.40;21.77;;;20.70;55.40;;;;;;4997337;28;20135;-71
2022/03/05 02:53:58;;;;;;;37.47;20.33;;;20.80;55.40;;;;;;4983537;28;20050;-71
2022/03/05 02:56:24;;;;;;;37.17;21.13;;;20.70;55.60;;;;;;4997923;28;20039;-71
2022/03/05 02:58:51;;;;;;;35.42;20.45;;;20.60;55.70;;;;;;4997974;28;20046;-71
2022/03/05 03:01:18;;;;;;;34.78;19.67;;;20.70;56.00;;;;;;4997448;28;20039;-72
2022/03/05 03:03:44;;;;;;;34.25;20.38;;;20.70;56.10;;;;;;4998158;28;20066;-71
2022/03/05 03:06:10;;;;;;;34.92;20.15;;;20.60;56.10;;;;;;4997844;28;20106;-71
2022/03/05 03:08:36;;;;;;;34.15;20.70;;;20.50;56.20;;;;;;4998141;28;20053;-71
2022/03/05 03:11:03;;;;;;;37.28;21.42;;;20.50;56.20;;;;;;4997408;28;20043;-71
2022/03/05 03:13:29;;;;;;;34.63;20.55;;;20.60;56.40;;;;;;4996687;28;20098;-71
2022/03/05 03:15:55;;;;;;;36.38;21.73;;;20.60;56.40;;;;;;4996394;28;20127;-72
2022/03/05 03:18:21;;;;;;;30.98;19.88;;;20.50;56.70;;;;;;4995975;28;20043;-71
2022/03/05 03:20:47;;;;;;;36.92;20.77;;;20.50;56.60;;;;;;4996087;28;20073;-71
2022/03/05 03:23:13;;;;;;;32.88;20.00;;;20.40;56.40;;;;;;4996141;28;20039;-71
2022/03/05 03:25:39;;;;;;;33.30;20.05;;;20.50;56.40;;;;;;4997706;28;20067;-71
2022/03/05 03:28:07;;;;;;;35.65;21.23;;;20.60;56.20;;;;;;4997119;28;20110;-71
2022/03/05 03:30:33;;;;;;;33.35;20.60;;;20.60;56.10;;;;;;4996327;28;20035;-71
2022/03/05 03:33:00;;;;;;;33.80;20.50;;;20.60;56.10;;;;;;4995897;28;20054;-71
2022/03/05 03:35:26;;;;;;;38.45;21.77;;;20.70;55.80;;;;;;4996055;28;20045;-71
2022/03/05 03:37:52;;;;;;;34.75;19.70;;;20.70;55.70;;;;;;4995709;28;20049;-71
2022/03/05 03:40:19;;;;;;;33.40;20.67;;;20.60;55.50;;;;;;4996563;28;20062;-71
2022/03/05 03:42:48;;;;;;;39.30;20.02;;;20.60;55.60;;;;;;4995971;28;20131;-71
2022/03/05 03:45:15;;;;;;;32.47;20.33;;;20.60;55.70;;;;;;4996388;28;20071;-72
2022/03/05 03:47:43;;;;;;;39.55;20.08;;;20.60;55.80;;;;;;4997130;28;20035;-71
2022/03/05 03:50:15;;;;;;;35.53;20.80;;;20.50;56.00;;;;;;4997173;28;20081;-71
2022/03/05 03:52:41;;;;;;;32.00;20.30;;;20.50;56.10;;;;;;4998463;28;20109;-72
2022/03/05 03:55:10;;;;;;;29.08;18.73;;;20.50;56.20;;;;;;4997138;28;20066;-71
2022/03/05 03:57:37;;;;;;;30.15;18.88;;;20.50;56.40;;;;;;4996419;28;20031;-72
2022/03/05 04:00:08;;;;;;;34.78;20.02;;;20.50;56.50;;;;;;4997103;28;20102;-72
2022/03/05 04:02:38;;;;;;;35.30;18.48;;;20.50;56.70;;;;;;4997045;28;20039;-72
2022/03/05 04:05:04;;;;;;;32.15;20.58;;;20.40;56.50;;;;;;4997374;28;20047;-71
2022/03/05 04:10:16;;;;;;;41.03;21.30;;;20.40;56.60;;;;;;4977961;29;20070;-71
2022/03/05 04:12:43;;;;;;;31.65;19.70;;;20.50;56.40;;;;;;4988714;28;20051;-72
2022/03/05 04:15:09;;;;;;;36.78;20.83;;;20.50;56.30;;;;;;4996907;28;20073;-71
2022/03/05 04:17:37;;;;;;;39.33;20.95;;;20.50;56.20;;;;;;4997210;28;20066;-71
2022/03/05 04:20:07;;;;;;;34.28;19.63;;;20.50;56.20;;;;;;4997038;28;20062;-71
2022/03/05 04:22:33;;;;;;;31.30;19.08;;;20.40;56.20;;;;;;4997546;28;20074;-71
2022/03/05 04:25:00;;;;;;;33.53;20.52;;;20.50;56.10;;;;;;4996559;28;20066;-72
2022/03/05 04:27:26;;;;;;;31.88;18.45;;;20.60;55.90;;;;;;4996899;28;20035;-71
2022/03/05 04:29:53;;;;;;;32.35;17.98;;;20.60;55.90;;;;;;5000198;28;20054;-72
2022/03/05 04:32:21;;;;;;;30.85;19.02;;;20.60;56.00;;;;;;4997316;28;20078;-71
2022/03/05 04:34:47;;;;;;;34.13;18.75;;;20.60;56.00;;;;;;4996598;28;20043;-71
2022/03/05 04:37:13;;;;;;;34.17;18.58;;;20.50;56.20;;;;;;4997823;28;20049;-71
2022/03/05 04:39:39;;;;;;;29.35;16.50;;;20.40;56.60;;;;;;4996473;28;20042;-71
2022/03/05 04:42:08;;;;;;;28.10;16.35;;;20.40;56.50;;;;;;4996727;28;20047;-71
2022/03/05 04:44:34;;;;;;;24.70;16.08;;;20.30;56.70;;;;;;4997058;28;20043;-72
2022/03/05 04:47:00;;;;;;;28.00;15.23;;;20.30;56.80;;;;;;4998096;28;20106;-71
2022/03/05 04:49:26;;;;;;;24.30;13.60;;;20.30;57.00;;;;;;5001209;28;20046;-71
2022/03/05 04:51:52;;;;;;;24.83;14.10;;;20.30;57.10;;;;;;5002320;28;20062;-72
2022/03/05 04:54:19;;;;;;;20.95;13.95;;;20.30;57.00;;;;;;5000020;28;20043;-71
2022/03/05 04:56:45;;;;;;;26.45;14.27;;;20.40;57.40;;;;;;5000313;28;20094;-72
2022/03/05 04:59:11;;;;;;;22.05;12.70;;;20.40;56.80;;;;;;5000264;28;20049;-72
2022/03/05 05:01:38;;;;;;;19.58;11.82;;;20.30;56.70;;;;;;4999287;28;20042;-71
2022/03/05 05:04:05;;;;;;;20.65;11.20;;;20.40;56.50;;;;;;4999111;28;20106;-72
2022/03/05 05:06:31;;;;;;;16.65;10.25;;;20.40;56.60;;;;;;5001125;28;20067;-71
2022/03/05 05:08:57;;;;;;;19.45;12.27;;;20.30;56.40;;;;;;4999598;28;20058;-71
2022/03/05 05:11:23;;;;;;;17.92;11.40;;;20.30;56.50;;;;;;4999245;28;20039;-71
2022/03/05 05:13:49;;;;;;;18.42;10.88;;;20.40;56.10;;;;;;4998798;28;20066;-71
2022/03/05 05:16:15;;;;;;;15.88;10.50;;;20.50;56.00;;;;;;4999138;28;20039;-71
2022/03/05 05:19:24;;;;;;;13.90;9.13;;;20.40;56.20;;;;;;4999220;28;20042;-71
2022/03/05 05:21:28;;;;;;;17.42;10.52;;;20.50;56.10;;;;;;5000264;28;20054;-72
2022/03/05 05:23:54;;;;;;;19.60;9.98;;;20.50;56.10;;;;;;4998920;28;20058;-72
2022/03/05 05:26:20;;;;;;;14.50;9.68;;;20.40;56.20;;;;;;4997783;28;20063;-72
2022/03/05 05:28:47;;;;;;;14.95;9.00;;;20.40;56.40;;;;;;4999048;28;20057;-71
2022/03/05 05:31:14;;;;;;;16.02;9.43;;;20.40;56.60;;;;;;4998824;28;20069;-71
2022/03/05 05:33:44;;;;;;;18.35;9.55;;;20.30;56.70;;;;;;4999178;28;20097;-71
2022/03/05 05:36:12;;;;;;;15.25;9.20;;;20.30;56.70;;;;;;4999978;28;20114;-72
2022/03/05 05:38:39;;;;;;;16.15;9.63;;;20.30;56.90;;;;;;4998726;28;20034;-72
2022/03/05 05:41:07;;;;;;;16.95;9.90;;;20.20;57.00;;;;;;4998575;28;20106;-71
2022/03/05 05:43:33;;;;;;;17.23;10.38;;;20.20;57.30;;;;;;4998621;28;20047;-71
2022/03/05 05:45:59;;;;;;;17.52;10.30;;;20.20;57.30;;;;;;4998553;28;20050;-72
2022/03/05 05:48:25;;;;;;;14.48;8.88;;;20.00;57.30;;;;;;4998345;28;20054;-71
2022/03/05 05:50:51;;;;;;;17.83;10.52;;;20.10;57.50;;;;;;5001245;28;20518;-71
2022/03/05 05:53:18;;;;;;;20.92;10.30;;;20.00;57.40;;;;;;5006204;28;20098;-71
2022/03/05 05:55:43;;;;;;;15.85;10.98;;;20.10;57.70;;;;;;4998739;28;20035;-70
2022/03/05 05:58:10;;;;;;;18.88;10.82;;;20.00;57.60;;;;;;4997291;28;20045;-71
2022/03/05 06:00:36;;;;;;;17.83;10.95;;;19.90;58.00;;;;;;4998173;28;20070;-71
2022/03/05 06:03:02;;;;;;;15.07;10.15;;;19.80;57.90;;;;;;4998251;28;20035;-71
2022/03/05 06:05:28;;;;;;;17.88;10.82;;;19.90;58.20;;;;;;4999984;28;20075;-71
2022/03/05 06:07:56;;;;;;;16.17;10.45;;;19.80;58.10;;;;;;4997821;28;20023;-71
2022/03/05 06:10:22;;;;;;;15.38;10.70;;;19.90;58.10;;;;;;4998021;28;20039;-71
2022/03/05 06:12:49;;;;;;;18.35;11.50;;;19.80;58.20;;;;;;5000884;28;20105;-71
2022/03/05 06:15:15;;;;;;;17.33;11.45;;;19.80;57.80;;;;;;4997177;28;20050;-71
2022/03/05 06:17:44;;;;;;;21.25;12.77;;;19.80;58.00;;;;;;4997254;28;20050;-71
2022/03/05 06:20:11;;;;;;;17.00;10.48;;;19.90;57.50;;;;;;4997479;28;20043;-71
2022/03/05 06:22:38;;;;;;;12.18;7.57;;;19.80;57.10;;;;;;4998504;28;20038;-70
2022/03/05 06:25:05;;;;;;;9.57;5.78;;;19.80;49.50;;;;;;5001025;28;20054;-70
2022/03/05 06:27:32;;;;;;;7.45;5.53;;;20.00;46.10;;;;;;5005020;28;20055;-70
2022/03/05 06:29:58;;;;;;;8.75;5.95;;;20.20;44.40;;;;;;5005219;28;20048;-69
2022/03/05 06:32:24;;;;;;;11.57;5.90;;;20.20;43.40;;;;;;5002574;28;20058;-70
2022/03/05 06:34:54;;;;;;;8.00;5.70;;;20.30;42.30;;;;;;5003084;28;20057;-70
2022/03/05 06:37:23;;;;;;;9.80;5.72;;;20.40;43.40;;;;;;5001132;28;20038;-70
2022/03/05 06:39:50;;;;;;;10.85;6.53;;;20.70;40.90;;;;;;4996633;28;20106;-69
2022/03/05 06:42:16;;;;;;;8.88;5.70;;;20.70;42.20;;;;;;5001787;28;20069;-69
2022/03/05 06:44:42;;;;;;;11.02;5.82;;;20.90;41.60;;;;;;4995357;28;20081;-70
2022/03/05 06:47:08;;;;;;;11.20;6.32;;;20.90;41.50;;;;;;5004302;28;20046;-71
2022/03/05 06:49:34;;;;;;;14.25;7.97;;;21.00;47.80;;;;;;5006375;28;20057;-70
2022/03/05 06:52:02;;;;;;;10.73;7.05;;;21.10;44.20;;;;;;5007249;28;20114;-70
2022/03/05 06:54:28;;;;;;;13.07;8.63;;;21.20;43.50;;;;;;5006784;28;20030;-70
2022/03/05 06:56:54;;;;;;;10.23;6.15;;;21.20;44.30;;;;;;4997017;28;20035;-70
2022/03/05 06:59:19;;;;;;;12.45;9.05;;;21.30;41.50;;;;;;4996570;28;20069;-70
2022/03/05 07:01:46;;;;;;;13.07;9.55;;;21.30;38.70;;;;;;4998370;28;20047;-69
2022/03/05 07:04:12;;;;;;;8.75;4.15;;;21.30;41.10;;;;;;5001960;28;20054;-71
2022/03/05 07:06:38;;;;;;;7.63;2.28;;;21.50;53.60;;;;;;4997782;28;20114;-70
2022/03/05 07:09:05;;;;;;;13.90;8.38;;;21.70;56.20;;;;;;4996128;28;20034;-71
2022/03/05 07:11:32;;;;;;;16.65;10.63;;;21.70;50.10;;;;;;4996887;28;20046;-72
2022/03/05 07:13:59;;;;;;;17.08;7.72;;;21.60;50.40;;;;;;4997032;28;20027;-72
2022/03/05 07:16:25;;;;;;;14.55;10.13;;;21.40;56.20;;;;;;4997008;28;20050;-71
2022/03/05 07:18:51;;;;;;;10.07;6.65;;;21.50;56.90;;;;;;4996560;28;20050;-72
2022/03/05 07:21:18;;;;;;;13.73;9.68;;;21.50;60.40;;;;;;5000632;28;20046;-72
2022/03/05 07:23:44;;;;;;;13.15;8.30;;;21.60;53.40;;;;;;4996536;28;20058;-72
2022/03/05 07:26:10;;;;;;;13.15;9.50;;;21.50;52.60;;;;;;4996652;28;20078;-72
2022/03/05 07:28:36;;;;;;;14.65;8.57;;;21.50;54.00;;;;;;4997651;28;20046;-71
2022/03/05 07:31:03;;;;;;;11.90;7.15;;;21.50;50.50;;;;;;4997783;28;20042;-71
2022/03/05 07:33:29;;;;;;;8.75;6.80;;;21.40;53.10;;;;;;4996911;28;20038;-71
2022/03/05 07:35:55;;;;;;;15.35;9.93;;;21.40;51.10;;;;;;5000498;28;20054;-72
2022/03/05 07:38:21;;;;;;;12.38;7.32;;;21.40;48.90;;;;;;5007937;28;20046;-71
2022/03/05 07:40:47;;;;;;;7.07;2.95;;;21.40;53.00;;;;;;4996326;28;20039;-71
2022/03/05 07:43:13;;;;;;;11.18;6.25;;;21.60;54.00;;;;;;4995882;28;20058;-71
2022/03/05 07:45:39;;;;;;;13.73;8.60;;;21.80;41.50;;;;;;4996844;28;20045;-72
2022/03/05 07:48:05;;;;;;;17.98;8.85;;;21.90;43.00;;;;;;4995124;28;20046;-71
2022/03/05 07:50:32;;;;;;;12.80;9.65;;;22.10;42.90;;;;;;4979004;28;20027;-72
2022/03/05 07:52:58;;;;;;;14.13;8.60;;;22.10;40.20;;;;;;4995559;28;20039;-72
2022/03/05 07:55:24;;;;;;;10.48;7.78;;;22.40;50.00;;;;;;4994173;28;20101;-71
2022/03/05 07:57:50;;;;;;;10.95;8.32;;;22.40;54.30;;;;;;4995899;28;20043;-72
2022/03/05 08:00:17;;;;;;;12.80;7.93;;;22.40;53.50;;;;;;4994240;28;20054;-71
2022/03/05 08:02:43;;;;;;;11.43;7.47;;;22.50;52.70;;;;;;4995949;28;20101;-72
2022/03/05 08:05:09;;;;;;;11.10;6.45;;;22.50;51.40;;;;;;4994345;28;20046;-72
2022/03/05 08:07:35;;;;;;;9.57;6.65;;;22.50;52.20;;;;;;4997061;28;20049;-72
2022/03/05 08:10:07;;;;;;;11.90;7.95;;;22.40;52.90;;;;;;5001931;28;20042;-72
2022/03/05 08:12:34;;;;;;;8.32;6.22;;;22.40;55.10;;;;;;4993283;28;20094;-73
2022/03/05 08:15:01;;;;;;;9.13;4.15;;;22.40;55.00;;;;;;4997174;28;20034;-73
2022/03/05 08:17:27;;;;;;;10.57;6.30;;;22.40;54.00;;;;;;5001975;28;20118;-74
2022/03/05 08:19:53;;;;;;;9.90;6.60;;;22.40;53.60;;;;;;4982918;28;20050;-74
2022/03/05 08:22:20;;;;;;;9.88;6.65;;;22.30;53.10;;;;;;4996529;28;20051;-73
2022/03/05 08:24:45;;;;;;;10.13;6.20;;;22.30;51.10;;;;;;4995932;28;20118;-73
2022/03/05 08:27:11;;;;;;;10.88;7.63;;;22.10;52.20;;;;;;4998487;28;20054;-73
2022/03/05 08:29:37;;;;;;;12.30;5.05;;;22.20;51.80;;;;;;4999285;28;20053;-73
2022/03/05 08:32:04;;;;;;;11.13;6.65;;;22.20;53.10;;;;;;4999440;28;20050;-72
2022/03/05 08:34:30;;;;;;;8.63;5.43;;;22.20;52.80;;;;;;5001166;28;20061;-73
2022/03/05 08:36:56;;;;;;;12.45;7.68;;;22.20;52.90;;;;;;5000742;28;20034;-72
2022/03/05 08:39:23;;;;;;;10.82;6.82;;;22.20;52.80;;;;;;4999557;28;20111;-73
2022/03/05 08:41:50;;;;;;;15.23;7.28;;;22.20;51.90;;;;;;4998289;28;20041;-72
2022/03/05 08:44:16;;;;;;;8.20;5.60;;;22.20;53.30;;;;;;4998458;28;20125;-73
2022/03/05 08:46:42;;;;;;;8.55;6.00;;;22.10;52.30;;;;;;4998955;28;20066;-73
2022/03/05 08:49:08;;;;;;;9.38;5.75;;;22.20;53.00;;;;;;4999990;28;20049;-73
2022/03/05 08:51:35;;;;;;;10.20;5.53;;;22.10;53.10;;;;;;5000902;28;20039;-73
2022/03/05 08:54:01;;;;;;;10.77;5.35;;;22.10;53.00;;;;;;5014606;28;20030;-73
2022/03/05 08:56:27;;;;;;;7.38;5.18;;;22.00;52.70;;;;;;5011326;28;20086;-73
2022/03/05 08:58:53;;;;;;;11.75;5.45;;;22.10;52.50;;;;;;4998685;28;20031;-73
2022/03/05 09:01:20;;;;;;;9.10;6.15;;;22.10;52.60;;;;;;4998857;28;20102;-73
2022/03/05 09:03:46;;;;;;;7.18;5.05;;;22.00;52.20;;;;;;4999011;28;20055;-73
2022/03/05 09:06:12;;;;;;;10.95;5.45;;;22.10;53.20;;;;;;5000368;28;20088;-72
2022/03/05 09:08:38;;;;;;;9.95;5.60;;;22.10;53.00;;;;;;5000570;28;20110;-72
2022/03/05 09:11:08;;;;;;;7.28;4.55;;;22.20;52.80;;;;;;4999054;28;20050;-73
2022/03/05 09:13:34;;;;;;;8.90;5.82;;;22.00;53.00;;;;;;4998403;28;20038;-72
2022/03/05 09:16:00;;;;;;;10.30;5.95;;;22.00;53.40;;;;;;5000114;28;20043;-72
2022/03/05 09:18:27;;;;;;;7.25;5.40;;;21.80;51.60;;;;;;5011310;28;20081;-73
2022/03/05 09:20:53;;;;;;;8.88;5.45;;;21.70;53.60;;;;;;5018965;28;20034;-73
2022/03/05 09:23:19;;;;;;;6.78;5.40;;;21.90;54.00;;;;;;5007993;28;20050;-73
2022/03/05 09:25:45;;;;;;;8.38;5.40;;;21.80;53.70;;;;;;5011770;28;20142;-73
2022/03/05 09:28:11;;;;;;;8.05;5.90;;;21.60;52.90;;;;;;5000913;28;20047;-72
2022/03/05 09:30:38;;;;;;;9.35;5.80;;;21.60;54.00;;;;;;4999182;28;20043;-72
2022/03/05 09:33:04;;;;;;;8.35;5.70;;;21.50;54.10;;;;;;4998668;28;20035;-72
2022/03/05 09:35:30;;;;;;;8.30;5.25;;;21.50;54.00;;;;;;4999027;28;20123;-73
2022/03/05 09:37:56;;;;;;;8.73;5.50;;;21.30;53.60;;;;;;5007681;28;20038;-73
2022/03/05 09:40:23;;;;;;;8.60;5.80;;;21.40;53.10;;;;;;5018593;28;20054;-72
2022/03/05 09:42:49;;;;;;;7.38;4.72;;;21.50;54.20;;;;;;5000571;28;20046;-72
2022/03/05 09:45:15;;;;;;;10.38;6.22;;;21.50;54.10;;;;;;4998535;28;20042;-72
2022/03/05 09:47:43;;;;;;;8.57;5.53;;;21.40;53.80;;;;;;4998747;28;20062;-72
2022/03/05 09:50:10;;;;;;;8.52;5.60;;;21.50;53.20;;;;;;4998486;28;20098;-72
2022/03/05 09:52:36;;;;;;;7.20;5.18;;;21.50;54.20;;;;;;5011222;28;20042;-72
2022/03/05 09:55:05;;;;;;;8.75;5.30;;;21.50;54.00;;;;;;5007062;28;20051;-72
2022/03/05 09:57:31;;;;;;;6.88;5.00;;;21.50;54.10;;;;;;4999655;28;20051;-72
2022/03/05 09:59:57;;;;;;;8.13;5.28;;;21.40;53.40;;;;;;4998121;28;20043;-72
2022/03/05 10:02:23;;;;;;;9.27;6.10;;;21.50;54.00;;;;;;4998606;28;20070;-73
2022/03/05 10:04:49;;;;;;;8.98;5.22;;;21.50;53.90;;;;;;4998587;28;20043;-72
2022/03/05 10:07:18;;;;;;;8.52;5.50;;;21.30;54.20;;;;;;5003947;28;20068;-72
2022/03/05 10:09:48;;;;;;;8.85;5.28;;;21.30;54.20;;;;;;5017751;28;20105;-73
2022/03/05 10:12:34;;;;;;;8.52;5.97;;;21.30;54.30;;;;;;5006306;28;20065;-73
2022/03/05 10:15:07;;;;;;;8.95;6.32;;;21.40;54.10;;;;;;4997453;28;20696;-72
2022/03/05 10:17:48;;;;;;;8.65;5.63;;;21.30;53.80;;;;;;4998410;28;20047;-72
2022/03/05 10:20:17;;;;;;;10.48;6.45;;;21.30;54.20;;;;;;4998294;28;20045;-73
2022/03/05 10:22:59;;;;;;;10.75;6.00;;;21.20;54.30;;;;;;5005917;28;20065;-72
2022/03/05 10:25:29;;;;;;;8.25;4.55;;;21.10;54.20;;;;;;5012959;28;20073;-73
2022/03/05 10:28:16;;;;;;;15.30;5.88;;;20.90;54.80;;;;;;5001353;28;20432;-73
2022/03/05 10:30:54;;;;;;;10.73;7.03;;;20.90;54.70;;;;;;4978750;29;20043;-73
2022/03/05 10:33:24;;;;;;;8.23;5.47;;;20.80;54.80;;;;;;4995242;28;20050;-73
2022/03/05 10:35:50;;;;;;;10.90;6.28;;;20.80;55.10;;;;;;4978637;29;20035;-73
2022/03/05 10:38:16;;;;;;;7.88;5.47;;;20.80;55.00;;;;;;4997768;28;20034;-72
2022/03/05 10:40:42;;;;;;;7.07;5.50;;;20.80;54.80;;;;;;4999305;28;20061;-73
2022/03/05 10:43:09;;;;;;;7.00;5.05;;;20.70;54.60;;;;;;4997888;28;20073;-72
2022/03/05 10:45:55;;;;;;;7.70;5.47;;;20.70;55.10;;;;;;4994375;28;20074;-73
2022/03/05 10:48:24;;;;;;;9.23;6.03;;;20.70;55.10;;;;;;4997290;28;20065;-72
2022/03/05 10:51:09;;;;;;;8.52;5.55;;;20.70;55.00;;;;;;4997466;28;20058;-72
2022/03/05 10:53:42;;;;;;;10.20;6.50;;;20.70;54.80;;;;;;5007820;28;20038;-73
2022/03/05 10:56:34;;;;;;;8.68;5.43;;;20.90;54.80;;;;;;5009503;28;20039;-72
2022/03/05 10:59:05;;;;;;;8.27;4.75;;;20.90;54.40;;;;;;4994726;28;20046;-73
2022/03/05 11:01:33;;;;;;;6.90;4.47;;;20.90;54.40;;;;;;4998006;28;20088;-73
2022/03/05 11:04:00;;;;;;;9.15;4.63;;;21.10;54.20;;;;;;4997006;28;20047;-72
2022/03/05 11:06:26;;;;;;;7.88;4.80;;;21.10;49.50;;;;;;5002680;28;20042;-73
2022/03/05 11:08:52;;;;;;;7.57;4.22;;;21.00;40.60;;;;;;5016799;28;20054;-72
2022/03/05 11:11:20;;;;;;;8.75;4.00;;;21.00;43.20;;;;;;5006196;28;20042;-71
2022/03/05 11:13:46;;;;;;;9.60;5.28;;;21.30;45.30;;;;;;4997486;28;20030;-70
2022/03/05 11:16:13;;;;;;;6.18;4.68;;;21.40;42.90;;;;;;4996167;28;20039;-72
2022/03/05 11:18:42;;;;;;;13.48;5.47;;;21.50;41.20;;;;;;4996897;28;20043;-72
2022/03/05 11:21:10;;;;;;;15.68;4.70;;;21.50;39.30;;;;;;4996290;28;20048;-72
2022/03/05 11:23:38;;;;;;;10.13;5.97;;;21.60;37.60;;;;;;4995841;28;20078;-73
2022/03/05 11:26:07;;;;;;;10.95;4.55;;;21.80;36.70;;;;;;4996835;28;20046;-72
2022/03/05 11:28:39;;;;;;;7.13;4.82;;;21.90;38.20;;;;;;4996394;28;20043;-73
2022/03/05 11:31:33;;;;;;;8.45;4.68;;;22.00;35.90;;;;;;4995295;28;20035;-72
2022/03/05 11:34:25;;;;;;;7.32;5.60;;;22.00;41.80;;;;;;4991646;28;20035;-73
2022/03/05 11:36:52;;;;;;;6.60;4.63;;;22.40;45.20;;;;;;4997276;28;20094;-74
2022/03/05 11:39:22;;;;;;;6.72;3.38;;;22.70;42.60;;;;;;4996085;28;20050;-72
2022/03/05 11:41:48;;;;;;;6.43;4.70;;;22.70;38.40;;;;;;5000991;28;20035;-74
2022/03/05 11:44:16;;;;;;;6.28;4.05;;;22.70;35.50;;;;;;4995257;28;20042;-74
2022/03/05 11:46:45;;;;;;;7.07;4.60;;;22.70;36.30;;;;;;4995412;28;20077;-74
2022/03/05 11:49:14;;;;;;;7.07;5.05;;;22.70;46.90;;;;;;4996481;28;20047;-74
2022/03/05 11:51:55;;;;;;;6.95;4.32;;;22.60;46.30;;;;;;4996846;28;20066;-73
2022/03/05 11:54:22;;;;;;;8.52;4.88;;;22.50;48.40;;;;;;4996861;28;20043;-74
2022/03/05 11:57:04;;;;;;;6.47;4.97;;;22.30;49.40;;;;;;4997788;28;20043;-74
2022/03/05 11:59:35;;;;;;;8.13;4.70;;;22.20;49.60;;;;;;5000328;28;20043;-74
2022/03/05 12:02:02;;;;;;;5.28;4.30;;;22.10;50.20;;;;;;4999576;28;20034;-74
2022/03/05 12:04:30;;;;;;;8.38;4.68;;;22.10;49.90;;;;;;5001727;28;20047;-75
2022/03/05 12:07:04;;;;;;;11.45;4.80;;;22.00;48.00;;;;;;5001017;28;20077;-74
2022/03/05 12:09:44;;;;;;;8.45;4.20;;;21.90;51.10;;;;;;5000821;28;20043;-75
2022/03/05 12:12:20;;;;;;;7.25;4.22;;;21.80;52.30;;;;;;5000222;28;20090;-74
2022/03/05 12:14:55;;;;;;;5.78;4.32;;;21.80;51.90;;;;;;5000094;28;20043;-74
2022/03/05 12:17:40;;;;;;;6.50;4.13;;;21.80;51.70;;;;;;5003187;28;20050;-74
2022/03/05 12:20:09;;;;;;;6.55;4.35;;;21.70;52.20;;;;;;5009809;28;20044;-74
2022/03/05 12:22:35;;;;;;;6.38;5.00;;;21.70;54.00;;;;;;5009357;28;20046;-73
2022/03/05 12:25:01;;;;;;;7.68;4.65;;;21.60;51.80;;;;;;5003036;28;20054;-73
2022/03/05 12:27:33;;;;;;;6.20;4.00;;;21.70;54.30;;;;;;5000954;28;20053;-72
2022/03/05 12:29:59;;;;;;;7.35;3.50;;;21.70;54.20;;;;;;5003720;28;20050;-74
2022/03/05 12:32:31;;;;;;;5.30;3.50;;;21.80;53.70;;;;;;4998412;28;20034;-75
2022/03/05 12:35:05;;;;;;;5.90;3.87;;;21.80;53.90;;;;;;5000036;28;20110;-75
2022/03/05 12:37:32;;;;;;;5.78;4.30;;;21.80;52.60;;;;;;4999243;28;20073;-75
2022/03/05 12:39:59;;;;;;;5.03;3.83;;;21.80;50.50;;;;;;5001638;28;20042;-76